Terminal Aerodrome Forecast
Issued by NWS Quad Cities IA IL

Home | Current Version | Previous Version | Text Only | Print | Product List | Glossary On
Versions: 1 2 3 4 5 6 7 8 9 10 11 12 13 14 15 16 17 18 19 20 21 22 23 24 25 26 27 28 29 30 31 32 33
000
FTUS43 KDVN 061303 AAA
TAFDBQ
TAF AMD
KDBQ 061303Z 0613/0712 13007KT 1SM BR VCSH OVC002
      TEMPO 0613/0614 1/4SM FG VV001
     FM061400 15009KT 2SM BR SCT006 BKN012
     FM061700 16013G20KT P6SM BKN150
     FM062300 17012G18KT 6SM -SHRA VCTS BKN030CB
     FM070300 16011KT 5SM BR OVC050=

USA.gov is the U.S. government's official web portal to all federal, state and local government web resources and services.